Time;durP1;ratioP1;P1;durP2;ratioP2;P2;SDS_P1;SDS_P2;PMS_P1;PMS_P2;Temp;Humidity;BMP_temperature;BMP_pressure;BME280_temperature;BME280_humidity;BME280_pressure;Samples;Min_cycle;Max_cycle;Signal;HPM_P1;HPM_P2
2022/08/11 00:01:17;;;;;;;14.07;5.05;;;;;;;;;;6211019;23;20020;-62
2022/08/11 00:04:01;;;;;;;10.43;5.55;;;;;;;;;;6209306;23;20590;-56
2022/08/11 00:06:31;;;;;;;9.73;5.43;;;;;;;;;;6212086;23;20025;-61
2022/08/11 00:09:10;;;;;;;11.70;5.50;;;;;;;;;;6210209;23;20800;-47
2022/08/11 00:11:39;;;;;;;16.08;5.50;;;;;;;;;;6212294;23;20090;-44
2022/08/11 00:14:14;;;;;;;11.90;4.97;;;;;;;;;;6210941;23;20401;-50
2022/08/11 00:16:42;;;;;;;16.27;5.75;;;;;;;;;;6211115;23;20055;-46
2022/08/11 00:19:10;;;;;;;14.30;5.38;;;;;;;;;;6210755;23;20020;-47
2022/08/11 00:22:04;;;;;;;13.45;5.53;;;;;;;;;;6211040;23;20025;-55
2022/08/11 00:24:33;;;;;;;14.00;4.90;;;;;;;;;;6209889;23;20355;-60
2022/08/11 00:27:35;;;;;;;16.85;5.75;;;;;;;;;;6212154;23;20100;-60
2022/08/11 00:30:04;;;;;;;7.70;5.07;;;;;;;;;;6210987;23;20427;-60
2022/08/11 00:32:54;;;;;;;8.93;4.78;;;;;;;;;;6211071;23;20067;-60
2022/08/11 00:35:25;;;;;;;14.00;5.43;;;;;;;;;;6209615;23;20505;-59
2022/08/11 00:38:26;;;;;;;10.40;5.05;;;;;;;;;;6190152;23;20024;-60
2022/08/11 00:41:20;;;;;;;12.50;5.65;;;;;;;;;;6183431;23;20079;-62
2022/08/11 00:44:11;;;;;;;16.13;5.72;;;;;;;;;;6159028;23;20020;-57
2022/08/11 00:46:57;;;;;;;12.23;4.78;;;;;;;;;;6184539;23;20017;-58
2022/08/11 00:49:39;;;;;;;11.38;5.40;;;;;;;;;;6210059;23;20052;-56
2022/08/11 00:52:18;;;;;;;11.35;5.55;;;;;;;;;;6180139;23;20028;-57
2022/08/11 00:54:57;;;;;;;10.52;4.90;;;;;;;;;;6209656;23;20336;-58
2022/08/11 00:57:43;;;;;;;13.77;5.10;;;;;;;;;;6211278;23;20031;-58
2022/08/11 01:00:22;;;;;;;9.65;5.43;;;;;;;;;;6211408;23;20024;-56
2022/08/11 01:02:55;;;;;;;11.90;5.45;;;;;;;;;;6210906;23;20028;-47
2022/08/11 01:05:52;;;;;;;11.95;5.78;;;;;;;;;;6208127;23;20024;-51
2022/08/11 01:08:28;;;;;;;;;;;;;;;;;;6210384;23;20021;-48
2022/08/11 01:11:18;;;;;;;16.05;5.55;;;;;;;;;;6211831;23;19916;-45
2022/08/11 01:13:46;;;;;;;16.10;5.45;;;;;;;;;;6211060;23;20082;-46
2022/08/11 01:16:38;;;;;;;15.60;5.15;;;;;;;;;;6210860;23;20021;-48
2022/08/11 01:19:08;;;;;;;15.95;5.32;;;;;;;;;;6210438;23;20091;-56
2022/08/11 01:21:48;;;;;;;17.65;5.07;;;;;;;;;;6210800;23;20020;-56
2022/08/11 01:24:15;;;;;;;15.20;5.57;;;;;;;;;;6209458;23;20021;-57
2022/08/11 01:27:12;;;;;;;15.48;4.72;;;;;;;;;;6210212;23;20024;-56
2022/08/11 01:30:04;;;;;;;15.73;5.28;;;;;;;;;;6208318;23;20425;-58
2022/08/11 01:32:54;;;;;;;15.18;5.50;;;;;;;;;;6210940;23;20020;-55
2022/08/11 01:35:27;;;;;;;13.82;5.28;;;;;;;;;;6209666;23;20405;-54
2022/08/11 01:38:20;;;;;;;15.82;5.82;;;;;;;;;;6210592;23;20107;-63
2022/08/11 01:41:00;;;;;;;20.48;6.03;;;;;;;;;;6208846;23;20096;-64
2022/08/11 01:47:49;;;;;;;19.88;5.72;;;;;;;;;;6210183;23;20028;-64
2022/08/11 01:50:20;;;;;;;22.17;6.10;;;;;;;;;;6070100;23;20045;-64
2022/08/11 01:52:56;;;;;;;15.52;5.82;;;;;;;;;;6209952;23;20082;-64
2022/08/11 01:55:34;;;;;;;18.35;6.03;;;;;;;;;;6209492;23;20024;-64
2022/08/11 01:58:16;;;;;;;17.77;6.00;;;;;;;;;;6210115;23;20350;-63
2022/08/11 02:01:10;;;;;;;17.45;5.25;;;;;;;;;;6209640;23;20088;-64
2022/08/11 02:03:51;;;;;;;18.48;6.07;;;;;;;;;;6206475;23;20378;-63
2022/08/11 02:06:57;;;;;;;17.17;5.72;;;;;;;;;;6211119;23;20079;-62
2022/08/11 02:09:41;;;;;;;15.98;5.78;;;;;;;;;;6209386;23;20536;-63
2022/08/11 02:12:41;;;;;;;17.10;6.05;;;;;;;;;;6210352;23;20491;-63
2022/08/11 02:15:40;;;;;;;19.17;5.80;;;;;;;;;;6210356;23;20024;-57
2022/08/11 02:18:23;;;;;;;20.02;5.75;;;;;;;;;;6209954;23;20029;-58
2022/08/11 02:24:05;;;;;;;12.15;6.28;;;;;;;;;;6210541;23;20066;-57
2022/08/11 02:26:41;;;;;;;19.55;6.18;;;;;;;;;;6210056;23;20055;-57
2022/08/11 02:29:18;;;;;;;16.55;6.03;;;;;;;;;;6209299;23;20462;-56
2022/08/11 02:35:16;;;;;;;25.75;6.60;;;;;;;;;;6210062;23;20021;-54
2022/08/11 02:37:50;;;;;;;16.40;6.20;;;;;;;;;;6210533;23;20024;-56
2022/08/11 02:40:30;;;;;;;16.70;5.82;;;;;;;;;;6210347;23;20017;-57
2022/08/11 02:43:04;;;;;;;14.50;6.35;;;;;;;;;;6209026;23;20021;-55
2022/08/11 02:45:48;;;;;;;20.52;6.97;;;;;;;;;;6205847;23;20470;-55
2022/08/11 02:51:52;;;;;;;22.63;6.95;;;;;;;;;;6209890;23;20248;-58
2022/08/11 02:54:40;;;;;;;15.88;6.53;;;;;;;;;;6208133;23;20031;-45
2022/08/11 02:57:22;;;;;;;17.33;6.22;;;;;;;;;;6211108;23;20029;-45
2022/08/11 02:59:59;;;;;;;18.42;6.40;;;;;;;;;;6209445;23;20458;-48
2022/08/11 03:02:47;;;;;;;17.05;6.05;;;;;;;;;;6210740;23;20035;-43
2022/08/11 03:05:39;;;;;;;18.08;5.97;;;;;;;;;;6204987;23;20035;-44
2022/08/11 03:08:17;;;;;;;20.88;6.50;;;;;;;;;;6210096;23;20020;-45
2022/08/11 03:16:43;;;;;;;21.30;6.22;;;;;;;;;;6209466;23;20114;-58
2022/08/11 03:17:16;;;;;;;14.90;6.10;;;;;;;;;;6208387;23;20068;-57
2022/08/11 03:19:59;;;;;;;19.25;6.18;;;;;;;;;;6208787;23;20027;-57
2022/08/11 03:22:33;;;;;;;16.73;6.43;;;;;;;;;;6208615;23;20025;-58
2022/08/11 03:25:30;;;;;;;19.10;6.15;;;;;;;;;;6209403;23;20067;-56
2022/08/11 03:28:02;;;;;;;14.57;6.22;;;;;;;;;;6209432;23;20095;-63
2022/08/11 03:30:43;;;;;;;17.48;6.38;;;;;;;;;;6209577;23;20044;-63
2022/08/11 03:36:24;;;;;;;19.23;6.28;;;;;;;;;;6208807;23;20078;-63
2022/08/11 03:39:05;;;;;;;20.63;6.15;;;;;;;;;;6209180;23;20025;-62
2022/08/11 03:41:43;;;;;;;24.02;7.05;;;;;;;;;;6209632;23;20024;-63
2022/08/11 03:44:49;;;;;;;23.40;6.10;;;;;;;;;;6208113;23;20489;-58
2022/08/11 03:47:23;;;;;;;18.42;6.88;;;;;;;;;;6208831;23;20601;-54
2022/08/11 03:49:53;;;;;;;26.75;7.30;;;;;;;;;;6208987;23;20102;-55
2022/08/11 03:52:21;;;;;;;20.10;6.75;;;;;;;;;;6207913;23;20028;-56
2022/08/11 03:55:20;;;;;;;28.35;7.07;;;;;;;;;;6209229;23;20021;-55
2022/08/11 03:58:00;;;;;;;23.95;6.80;;;;;;;;;;6207788;23;20103;-56
2022/08/11 04:00:52;;;;;;;21.38;6.85;;;;;;;;;;6208147;23;20036;-56
2022/08/11 04:03:27;;;;;;;20.42;5.85;;;;;;;;;;6209015;23;20024;-56
2022/08/11 04:06:27;;;;;;;14.15;6.40;;;;;;;;;;6207777;23;20025;-56
2022/08/11 04:09:03;;;;;;;17.98;6.97;;;;;;;;;;6209406;23;20021;-57
2022/08/11 04:11:45;;;;;;;22.65;6.70;;;;;;;;;;6210815;23;20086;-56
2022/08/11 04:17:43;;;;;;;12.68;6.13;;;;;;;;;;6209722;23;20025;-56
2022/08/11 04:20:32;;;;;;;17.05;5.63;;;;;;;;;;6208388;23;20021;-56
2022/08/11 10:35:25;;;;;;;2.80;1.20;;;;;;;;;;6211447;23;20099;-68
2022/08/11 10:38:00;;;;;;;2.42;1.20;;;;;;;;;;6186004;23;20048;-68
2022/08/11 10:43:01;;;;;;;2.58;1.30;;;;;;;;;;6211615;23;20029;-67
2022/08/11 10:43:41;;;;;;;3.33;1.10;;;;;;;;;;6212472;23;20091;-68
2022/08/11 10:49:22;;;;;;;3.95;1.67;;;;;;;;;;6211770;23;20032;-60
2022/08/11 11:00:31;;;;;;;4.30;1.30;;;;;;;;;;6211486;23;20021;-55
2022/08/11 11:02:59;;;;;;;3.13;1.52;;;;;;;;;;6212071;23;20016;-57
2022/08/11 11:05:50;;;;;;;2.70;1.33;;;;;;;;;;6210360;23;20108;-68
2022/08/11 11:08:54;;;;;;;2.60;1.30;;;;;;;;;;6210645;23;20103;-55
2022/08/11 11:19:46;;;;;;;3.60;1.42;;;;;;;;;;6211807;23;20079;-56
2022/08/11 11:22:37;;;;;;;1.40;1.23;;;;;;;;;;6190216;23;20032;-55
2022/08/11 11:25:19;;;;;;;4.88;1.52;;;;;;;;;;6181283;23;20028;-50
2022/08/11 11:28:20;;;;;;;2.55;1.08;;;;;;;;;;6180572;23;20025;-58
2022/08/11 11:31:03;;;;;;;3.10;1.40;;;;;;;;;;6179290;23;20128;-58
2022/08/11 11:33:58;;;;;;;2.58;1.20;;;;;;;;;;6180463;23;20028;-58
2022/08/11 11:36:47;;;;;;;4.47;1.05;;;;;;;;;;6179427;23;20036;-57
2022/08/11 11:39:22;;;;;;;6.00;1.35;;;;;;;;;;6180843;23;20499;-57
2022/08/11 11:41:51;;;;;;;1.75;1.20;;;;;;;;;;6179724;23;20021;-58
2022/08/11 11:44:20;;;;;;;2.80;0.90;;;;;;;;;;6180004;23;20561;-61
2022/08/11 11:46:54;;;;;;;2.95;1.45;;;;;;;;;;6179583;23;20048;-48
2022/08/11 11:49:24;;;;;;;2.95;1.23;;;;;;;;;;6180423;23;20056;-48
2022/08/11 11:51:52;;;;;;;3.20;1.20;;;;;;;;;;6179599;23;20499;-47
2022/08/11 11:54:28;;;;;;;1.55;1.27;;;;;;;;;;6180324;23;20044;-51
2022/08/11 11:56:56;;;;;;;5.47;1.33;;;;;;;;;;6179422;23;20025;-47
2022/08/11 12:02:23;;;;;;;1.80;1.20;;;;;;;;;;6179868;23;20522;-62
2022/08/11 12:04:50;;;;;;;3.25;1.25;;;;;;;;;;6178754;23;20075;-56
2022/08/11 12:10:10;;;;;;;2.90;1.08;;;;;;;;;;6180503;23;20084;-55
2022/08/11 12:15:31;;;;;;;2.80;1.17;;;;;;;;;;6178880;23;19962;-56
2022/08/11 12:18:18;;;;;;;3.13;1.33;;;;;;;;;;6180668;23;20021;-57
2022/08/11 12:21:01;;;;;;;1.63;0.90;;;;;;;;;;6178334;23;20083;-56
2022/08/11 12:29:44;;;;;;;2.60;0.90;;;;;;;;;;6179095;23;20020;-51
2022/08/11 12:32:24;;;;;;;3.58;1.33;;;;;;;;;;6180242;23;20032;-50
2022/08/11 12:34:52;;;;;;;2.28;1.30;;;;;;;;;;6178613;23;20324;-52
2022/08/11 12:37:39;;;;;;;3.30;1.10;;;;;;;;;;6178972;23;20091;-69
2022/08/11 12:46:24;;;;;;;5.32;1.10;;;;;;;;;;6178950;23;20025;-48
2022/08/11 12:51:57;;;;;;;3.88;1.08;;;;;;;;;;6179610;23;20030;-51
2022/08/11 12:54:46;;;;;;;2.33;1.05;;;;;;;;;;6180222;23;20028;-53
2022/08/11 13:05:53;;;;;;;1.73;0.98;;;;;;;;;;6178944;23;20075;-48
2022/08/11 13:08:29;;;;;;;;;;;;;;;;;;6181208;23;20025;-48
2022/08/11 13:13:51;;;;;;;1.50;1.00;;;;;;;;;;6180304;23;20025;-48
2022/08/11 13:16:28;;;;;;;2.17;0.90;;;;;;;;;;6179395;23;20024;-58
2022/08/11 13:18:57;;;;;;;1.48;1.17;;;;;;;;;;6179609;23;20025;-59
2022/08/11 13:21:24;;;;;;;1.75;1.20;;;;;;;;;;6178861;23;20068;-58
2022/08/11 13:24:09;;;;;;;3.05;1.25;;;;;;;;;;6179496;23;20025;-58
2022/08/11 13:26:43;;;;;;;2.30;1.00;;;;;;;;;;6153464;23;20021;-58
2022/08/11 13:29:28;;;;;;;3.47;0.95;;;;;;;;;;6179350;23;20541;-58
2022/08/11 13:32:01;;;;;;;2.53;1.08;;;;;;;;;;6179658;23;20076;-59
2022/08/11 13:34:40;;;;;;;5.20;1.00;;;;;;;;;;6179927;23;20025;-61
2022/08/11 13:37:11;;;;;;;1.38;1.00;;;;;;;;;;6179184;23;20021;-64
2022/08/11 13:40:06;;;;;;;0.90;0.90;;;;;;;;;;6180122;23;20111;-63
2022/08/11 13:42:33;;;;;;;0.82;0.60;;;;;;;;;;6179632;23;20033;-64
2022/08/11 13:45:08;;;;;;;1.92;0.90;;;;;;;;;;6181127;23;20063;-64
2022/08/11 13:47:36;;;;;;;3.13;0.80;;;;;;;;;;6181448;23;20025;-64
2022/08/11 13:50:08;;;;;;;2.20;0.85;;;;;;;;;;6181603;23;20025;-64
2022/08/11 13:52:43;;;;;;;0.85;0.82;;;;;;;;;;6181377;23;20021;-57
2022/08/11 13:55:20;;;;;;;1.00;0.70;;;;;;;;;;6180727;23;20025;-64
2022/08/11 13:58:15;;;;;;;1.63;0.93;;;;;;;;;;6180754;23;20537;-64
2022/08/11 14:00:48;;;;;;;1.58;0.88;;;;;;;;;;6181069;23;20021;-63
2022/08/11 14:03:52;;;;;;;1.80;0.90;;;;;;;;;;6181447;23;20104;-63
2022/08/11 14:06:44;;;;;;;1.63;1.02;;;;;;;;;;6180167;23;20027;-64
2022/08/11 14:09:28;;;;;;;2.28;0.70;;;;;;;;;;6181514;23;20029;-51
2022/08/11 14:15:02;;;;;;;1.95;1.20;;;;;;;;;;6181150;23;20021;-57
2022/08/11 14:17:40;;;;;;;3.05;1.00;;;;;;;;;;6181806;23;20063;-58
2022/08/11 14:20:17;;;;;;;1.55;0.82;;;;;;;;;;6179307;23;20158;-58
2022/08/11 14:23:11;;;;;;;0.73;0.70;;;;;;;;;;6179969;23;20029;-58
2022/08/11 14:28:38;;;;;;;0.73;0.73;;;;;;;;;;6180815;23;20045;-60
2022/08/11 14:31:16;;;;;;;0.73;0.73;;;;;;;;;;6181178;23;20036;-57
2022/08/11 14:33:44;;;;;;;0.63;0.60;;;;;;;;;;6180980;23;20021;-56
2022/08/11 14:36:35;;;;;;;2.95;0.85;;;;;;;;;;6179981;23;20079;-57
2022/08/11 14:39:15;;;;;;;1.75;0.80;;;;;;;;;;6180432;23;20024;-56
2022/08/11 14:47:36;;;;;;;1.83;0.93;;;;;;;;;;6181301;23;20025;-45
2022/08/11 14:50:24;;;;;;;2.05;0.90;;;;;;;;;;6181069;23;20025;-59
2022/08/11 14:53:09;;;;;;;1.27;0.82;;;;;;;;;;6180325;23;20021;-60
2022/08/11 14:58:32;;;;;;;1.08;0.80;;;;;;;;;;6180499;23;20028;-59
2022/08/11 15:03:05;;;;;;;2.25;1.00;;;;;;;;;;6180228;23;20029;-59
2022/08/11 15:03:55;;;;;;;0.98;0.70;;;;;;;;;;6179706;23;20133;-59
2022/08/11 15:06:49;;;;;;;2.15;0.52;;;;;;;;;;6180145;23;20052;-49
2022/08/11 15:09:17;;;;;;;1.60;1.10;;;;;;;;;;6180602;23;20498;-59
2022/08/11 15:12:07;;;;;;;0.55;0.55;;;;;;;;;;6179074;23;20021;-59
2022/08/11 15:17:49;;;;;;;0.63;0.60;;;;;;;;;;6180317;23;20366;-60
2022/08/11 15:26:13;;;;;;;1.00;0.90;;;;;;;;;;6180841;23;20045;-57
2022/08/11 15:37:25;;;;;;;2.85;1.20;;;;;;;;;;6180695;23;20025;-58
2022/08/11 15:46:21;;;;;;;2.67;0.93;;;;;;;;;;6089336;23;20543;-60
2022/08/11 15:48:52;;;;;;;3.00;1.00;;;;;;;;;;6160582;23;20363;-60
2022/08/11 15:51:30;;;;;;;1.60;1.40;;;;;;;;;;6180812;23;20052;-60
2022/08/11 15:53:59;;;;;;;1.65;1.10;;;;;;;;;;6181567;23;20028;-60
2022/08/11 15:56:27;;;;;;;4.28;1.70;;;;;;;;;;6179793;23;20048;-60
2022/08/11 16:04:46;;;;;;;3.33;1.20;;;;;;;;;;6178380;23;20442;-59
2022/08/11 16:07:14;;;;;;;3.00;1.30;;;;;;;;;;6177419;23;20354;-59
2022/08/11 16:09:43;;;;;;;4.90;1.17;;;;;;;;;;6179224;23;20060;-58
2022/08/11 16:12:31;;;;;;;2.92;1.20;;;;;;;;;;6179272;23;20021;-59
2022/08/11 16:17:57;;;;;;;2.38;1.15;;;;;;;;;;6177087;23;20025;-60
2022/08/11 16:20:25;;;;;;;1.80;1.17;;;;;;;;;;6180050;23;20029;-59
2022/08/11 16:22:55;;;;;;;2.25;1.33;;;;;;;;;;6178828;23;20071;-48
2022/08/11 16:25:38;;;;;;;2.15;1.40;;;;;;;;;;6179551;23;20025;-46
2022/08/11 16:28:26;;;;;;;2.70;1.30;;;;;;;;;;6179416;23;20105;-46
2022/08/11 16:31:09;;;;;;;1.65;1.20;;;;;;;;;;6178561;23;20084;-46
2022/08/11 16:33:40;;;;;;;3.80;1.33;;;;;;;;;;6179242;23;20524;-49
2022/08/11 16:39:04;;;;;;;2.33;1.25;;;;;;;;;;6179878;23;20081;-60
2022/08/11 16:47:50;;;;;;;4.35;1.40;;;;;;;;;;6179629;23;20091;-60
2022/08/11 16:50:39;;;;;;;3.63;1.40;;;;;;;;;;6176204;23;20100;-60
2022/08/11 16:53:14;;;;;;;2.60;1.60;;;;;;;;;;6179496;23;20490;-60
2022/08/11 16:55:41;;;;;;;2.25;1.38;;;;;;;;;;6180288;23;20056;-46
2022/08/11 17:01:14;;;;;;;1.95;1.63;;;;;;;;;;6180363;23;20060;-46
2022/08/11 17:16:05;;;;;;;3.80;1.85;;;;;;;;;;6175878;23;20410;-68
2022/08/11 17:18:02;;;;;;;2.70;1.77;;;;;;;;;;6177543;23;20025;-57
2022/08/11 17:20:30;;;;;;;3.00;1.92;;;;;;;;;;6180044;23;20029;-57
2022/08/11 17:26:09;;;;;;;3.78;1.30;;;;;;;;;;6177183;23;20095;-57
2022/08/11 17:28:37;;;;;;;2.28;1.70;;;;;;;;;;6179685;23;20071;-56
2022/08/11 17:36:52;;;;;;;4.97;1.77;;;;;;;;;;6176434;23;20340;-49
2022/08/11 17:39:20;;;;;;;2.63;1.92;;;;;;;;;;6177273;23;20029;-47
2022/08/11 17:50:20;;;;;;;6.07;1.85;;;;;;;;;;6169660;23;20025;-64
2022/08/11 18:01:23;;;;;;;2.67;1.83;;;;;;;;;;6175022;23;20584;-55
2022/08/11 18:03:50;;;;;;;2.33;1.98;;;;;;;;;;6175630;23;20025;-57
2022/08/11 18:06:25;;;;;;;2.40;2.00;;;;;;;;;;6174892;23;20363;-56
